Time;durP1;ratioP1;P1;durP2;ratioP2;P2;SDS_P1;SDS_P2;PMS_P1;PMS_P2;Temp;Humidity;BMP_temperature;BMP_pressure;BME280_temperature;BME280_humidity;BME280_pressure;Samples;Min_cycle;Max_cycle;Signal;HPM_P1;HPM_P2
2021/10/21 00:02:02;;;;;;;;;;;;;;;14.76;54.73;97298.84;1810481;78;24799;-86
2021/10/21 00:04:29;;;;;;;;;;;;;;;14.78;54.75;97309.56;1760784;79;22745;-86
2021/10/21 00:06:55;;;;;;;;;;;;;;;14.77;54.76;97324.20;1797429;78;26157;-87
2021/10/21 00:09:21;;;;;;;;;;;;;;;14.79;54.78;97332.73;1768848;79;20844;-87
2021/10/21 00:11:47;;;;;;;;;;;;;;;14.77;54.78;97343.46;1771190;80;20874;-87
2021/10/21 00:14:12;;;;;;;;;;;;;;;14.78;54.82;97348.23;1772516;79;20796;-87
2021/10/21 00:16:38;;;;;;;;;;;;;;;14.75;54.85;97343.27;1808942;78;20805;-87
2021/10/21 00:19:05;;;;;;;;;;;;;;;14.74;54.88;97337.67;1811717;78;21095;-86
2021/10/21 00:21:33;;;;;;;;;;;;;;;14.73;54.89;97338.67;1800128;78;25164;-86
2021/10/21 00:23:59;;;;;;;;;;;;;;;14.74;54.91;97338.98;1812157;78;20151;-86
2021/10/21 00:26:24;;;;;;;;;;;;;;;14.74;54.91;97340.30;1814180;77;20299;-86
2021/10/21 00:28:50;;;;;;;;;;;;;;;14.75;54.95;97342.78;1818790;77;20372;-86
2021/10/21 00:31:17;;;;;;;;;;;;;;;14.74;54.97;97341.13;1809651;78;26107;-86
2021/10/21 00:33:43;;;;;;;;;;;;;;;14.72;54.97;97332.58;1805961;78;24519;-86
2021/10/21 00:36:09;;;;;;;;;;;;;;;14.71;54.99;97324.34;1798431;78;20768;-86
2021/10/21 00:38:36;;;;;;;;;;;;;;;14.70;55.01;97328.44;1810262;78;24817;-86
2021/10/21 00:41:02;;;;;;;;;;;;;;;14.68;55.04;97322.50;1798214;78;22062;-86
2021/10/21 00:43:38;;;;;;;;;;;;;;;14.64;55.04;97325.95;1812246;78;26018;-86
2021/10/21 00:46:05;;;;;;;;;;;;;;;14.62;55.09;97320.84;1809894;78;24545;-87
2021/10/21 00:48:32;;;;;;;;;;;;;;;14.63;55.12;97326.45;1808469;78;20208;-86
2021/10/21 00:50:58;;;;;;;;;;;;;;;14.62;55.11;97318.20;1807954;78;25042;-86
2021/10/21 00:53:25;;;;;;;;;;;;;;;14.60;55.14;97317.56;1808102;78;20244;-86
2021/10/21 00:55:51;;;;;;;;;;;;;;;14.55;55.13;97313.75;1799662;78;26028;-87
2021/10/21 00:58:18;;;;;;;;;;;;;;;14.53;55.18;97318.34;1804520;78;24792;-86
2021/10/21 01:00:44;;;;;;;;;;;;;;;14.48;55.21;97313.56;1810843;78;20483;-87
2021/10/21 01:03:10;;;;;;;;;;;;;;;14.43;55.23;97307.95;1807888;78;20230;-87
2021/10/21 01:05:36;;;;;;;;;;;;;;;14.45;55.26;97300.73;1801187;78;22073;-87
2021/10/21 01:08:02;;;;;;;;;;;;;;;14.43;55.31;97293.47;1757405;78;26110;-87
2021/10/21 01:10:29;;;;;;;;;;;;;;;14.44;55.35;97290.34;1843173;77;24387;-86
2021/10/21 01:12:55;;;;;;;;;;;;;;;14.41;55.36;97273.54;1844043;76;20243;-86
2021/10/21 01:15:29;;;;;;;;;;;;;;;14.35;55.39;97272.33;1831772;77;20372;-86
2021/10/21 01:17:54;;;;;;;;;;;;;;;14.32;55.45;97270.03;1823093;77;21976;-86
2021/10/21 01:20:20;;;;;;;;;;;;;;;14.29;55.47;97268.22;1798659;78;26066;-86
2021/10/21 01:22:50;;;;;;;;;;;;;;;14.24;55.52;97258.14;1802374;78;25310;-86
2021/10/21 01:25:17;;;;;;;;;;;;;;;14.22;55.56;97255.70;1797598;78;20501;-86
2021/10/21 01:27:44;;;;;;;;;;;;;;;14.21;55.60;97261.11;1798568;79;24775;-86
2021/10/21 01:30:17;;;;;;;;;;;;;;;14.19;55.67;97251.22;1803195;79;21456;-86
2021/10/21 01:32:56;;;;;;;;;;;;;;;14.15;55.69;97257.30;1796872;79;26964;-87
2021/10/21 01:35:24;;;;;;;;;;;;;;;14.11;55.75;97249.40;1797682;79;24447;-82
2021/10/21 01:37:51;;;;;;;;;;;;;;;14.10;55.82;97251.69;1802342;78;20595;-82
2021/10/21 01:40:25;;;;;;;;;;;;;;;14.07;55.92;97248.05;1801352;79;24763;-82
2021/10/21 01:42:51;;;;;;;;;;;;;;;14.07;55.96;97248.56;1798188;79;21791;-82
2021/10/21 01:45:29;;;;;;;;;;;;;;;14.02;56.02;97237.69;1798603;79;21818;-82
2021/10/21 01:47:56;;;;;;;;;;;;;;;14.02;56.08;97235.06;1797482;79;24486;-82
2021/10/21 01:50:23;;;;;;;;;;;;;;;14.02;56.17;97228.48;1800427;78;20155;-82
2021/10/21 01:52:49;;;;;;;;;;;;;;;13.97;56.25;97224.16;1798051;79;24771;-82
2021/10/21 01:55:16;;;;;;;;;;;;;;;13.95;56.32;97221.70;1792810;79;22151;-82
2021/10/21 01:57:42;;;;;;;;;;;;;;;13.91;56.38;97214.30;1800893;78;26078;-82
2021/10/21 02:00:12;;;;;;;;;;;;;;;13.91;56.44;97219.55;1802039;79;24487;-82
2021/10/21 02:02:39;;;;;;;;;;;;;;;13.90;56.51;97213.95;1799685;79;20418;-82
2021/10/21 02:05:09;;;;;;;;;;;;;;;13.89;56.57;97214.45;1775045;78;24700;-82
2021/10/21 02:07:38;;;;;;;;;;;;;;;13.86;56.64;97219.17;1801307;78;21895;-82
2021/10/21 02:10:05;;;;;;;;;;;;;;;13.85;56.73;97208.34;1799380;79;20973;-82
2021/10/21 02:12:31;;;;;;;;;;;;;;;13.84;56.81;97199.62;1799680;79;24342;-82
2021/10/21 02:14:57;;;;;;;;;;;;;;;13.83;56.86;97194.86;1800926;79;20269;-82
2021/10/21 02:17:24;;;;;;;;;;;;;;;13.79;56.94;97188.76;1800115;79;20269;-82
2021/10/21 02:19:55;;;;;;;;;;;;;;;13.77;56.99;97186.28;1828400;77;22055;-82
2021/10/21 02:22:19;;;;;;;;;;;;;;;13.75;57.07;97179.03;1824638;77;26767;-82
2021/10/21 02:24:47;;;;;;;;;;;;;;;13.76;57.12;97179.36;1829503;77;25323;-82
2021/10/21 02:27:13;;;;;;;;;;;;;;;13.75;57.17;97151.42;1784030;79;20477;-82
2021/10/21 02:29:39;;;;;;;;;;;;;;;13.75;57.28;97168.51;1752421;80;24797;-82
2021/10/21 02:32:05;;;;;;;;;;;;;;;13.76;57.35;97162.77;1754107;79;20363;-82
2021/10/21 02:34:31;;;;;;;;;;;;;;;13.74;57.41;97151.11;1755439;81;26215;-82
2021/10/21 02:36:58;;;;;;;;;;;;;;;13.72;57.47;97145.66;1763209;79;24562;-82
2021/10/21 02:39:24;;;;;;;;;;;;;;;13.70;57.54;97146.30;1765469;80;20265;-82
2021/10/21 02:41:50;;;;;;;;;;;;;;;13.68;57.59;97134.65;1760006;79;20276;-82
2021/10/21 02:44:20;;;;;;;;;;;;;;;13.65;57.69;97140.20;1760684;80;21960;-82
2021/10/21 02:46:46;;;;;;;;;;;;;;;13.67;57.76;97133.00;1739765;80;26102;-82
2021/10/21 02:49:20;;;;;;;;;;;;;;;13.71;57.84;97143.52;1762757;80;20193;-81
2021/10/21 02:51:46;;;;;;;;;;;;;;;13.71;57.91;97141.38;1761175;79;20216;-82
2021/10/21 02:54:15;;;;;;;;;;;;;;;13.70;57.96;97131.84;1759009;79;20668;-82
2021/10/21 02:56:41;;;;;;;;;;;;;;;13.68;58.03;97125.45;1759916;80;22051;-82
2021/10/21 02:59:07;;;;;;;;;;;;;;;13.71;58.10;97123.80;1761742;79;21201;-82
2021/10/21 03:01:33;;;;;;;;;;;;;;;13.74;58.17;97117.42;1763840;79;20926;-82
2021/10/21 03:03:59;;;;;;;;;;;;;;;13.74;58.24;97116.93;1757877;79;20434;-82
2021/10/21 03:06:26;;;;;;;;;;;;;;;13.74;58.29;97120.05;1759983;80;20233;-82
2021/10/21 03:08:52;;;;;;;;;;;;;;;13.72;58.34;97097.84;1761611;80;22680;-82
2021/10/21 03:11:18;;;;;;;;;;;;;;;13.73;58.40;97096.87;1784283;79;25938;-82
2021/10/21 03:13:44;;;;;;;;;;;;;;;13.72;58.46;97091.27;1752641;80;24407;-81
2021/10/21 03:16:10;;;;;;;;;;;;;;;13.74;58.53;97099.84;1740770;80;20285;-82
2021/10/21 03:18:36;;;;;;;;;;;;;;;13.72;58.56;97097.02;1781743;78;24814;-82
2021/10/21 03:21:02;;;;;;;;;;;;;;;13.70;58.60;97091.91;1756169;81;22013;-81
2021/10/21 03:23:28;;;;;;;;;;;;;;;13.70;58.67;97085.83;1756775;81;21149;-81
2021/10/21 03:25:55;;;;;;;;;;;;;;;13.67;58.72;97076.96;1753869;81;24368;-83
2021/10/21 03:28:21;;;;;;;;;;;;;;;13.62;58.80;97084.50;1749935;81;20318;-82
2021/10/21 03:30:47;;;;;;;;;;;;;;;13.62;58.84;97085.81;1752672;81;24807;-82
2021/10/21 03:33:13;;;;;;;;;;;;;;;13.62;58.89;97089.77;1753097;81;22047;-82
2021/10/21 03:35:39;;;;;;;;;;;;;;;13.61;58.98;97078.91;1804554;78;26125;-81
2021/10/21 03:38:05;;;;;;;;;;;;;;;13.59;59.04;97084.31;1808379;78;20282;-82
2021/10/21 03:40:31;;;;;;;;;;;;;;;13.59;59.13;97075.60;1807341;78;20216;-82
2021/10/21 03:42:59;;;;;;;;;;;;;;;13.59;59.19;97075.11;1808454;78;24761;-82
2021/10/21 03:45:25;;;;;;;;;;;;;;;13.60;59.23;97067.56;1794458;78;22167;-83
2021/10/21 03:47:53;;;;;;;;;;;;;;;13.61;59.32;97062.65;1797701;78;25930;-82
2021/10/21 03:50:19;;;;;;;;;;;;;;;13.58;59.37;97055.58;1798590;78;24611;-82
2021/10/21 03:52:45;;;;;;;;;;;;;;;13.58;59.44;97040.60;1811216;78;20741;-82
2021/10/21 03:55:11;;;;;;;;;;;;;;;13.56;59.49;97028.13;1809034;78;24719;-81
2021/10/21 03:57:37;;;;;;;;;;;;;;;13.55;59.57;97029.11;1810941;78;20244;-82
2021/10/21 04:00:04;;;;;;;;;;;;;;;13.55;59.63;97024.34;1803504;78;26004;-82
2021/10/21 04:02:31;;;;;;;;;;;;;;;13.54;59.69;97016.95;1777319;78;23761;-82
2021/10/21 04:04:57;;;;;;;;;;;;;;;13.54;59.74;97005.61;1814470;78;20489;-82
2021/10/21 04:07:24;;;;;;;;;;;;;;;13.52;59.80;97001.84;1806197;78;37787;-82
2021/10/21 04:09:50;;;;;;;;;;;;;;;13.49;59.86;96994.75;1806989;78;22064;-82
2021/10/21 04:12:16;;;;;;;;;;;;;;;13.45;59.91;96994.26;1808622;78;21158;-82
2021/10/21 04:14:42;;;;;;;;;;;;;;;13.45;59.97;96982.44;1809988;78;24418;-81
2021/10/21 04:17:09;;;;;;;;;;;;;;;13.44;60.03;96974.22;1812430;78;20445;-82
2021/10/21 04:19:35;;;;;;;;;;;;;;;13.37;60.09;96976.66;1817075;78;25484;-82
2021/10/21 04:22:02;;;;;;;;;;;;;;;13.37;60.17;96964.00;1809298;78;20328;-81
2021/10/21 04:24:30;;;;;;;;;;;;;;;13.35;60.24;96973.88;1811505;78;26208;-82
2021/10/21 04:26:56;;;;;;;;;;;;;;;13.32;60.30;96964.48;1788353;78;24492;-81
2021/10/21 04:29:22;;;;;;;;;;;;;;;13.29;60.37;96964.82;1810716;78;20247;-82
2021/10/21 04:31:48;;;;;;;;;;;;;;;13.29;60.43;96964.82;1808928;78;20257;-82
2021/10/21 04:34:15;;;;;;;;;;;;;;;13.29;60.48;96941.17;1806966;78;22030;-82
2021/10/21 04:36:43;;;;;;;;;;;;;;;13.28;60.56;96947.41;1803913;78;26062;-82
2021/10/21 04:39:09;;;;;;;;;;;;;;;13.25;60.60;96945.11;1808035;78;24525;-82
2021/10/21 04:41:35;;;;;;;;;;;;;;;13.23;60.67;96939.67;1800607;79;20293;-82
2021/10/21 04:44:01;;;;;;;;;;;;;;;13.22;60.74;96941.48;1806586;78;24740;-82
2021/10/21 04:46:27;;;;;;;;;;;;;;;13.18;60.82;96938.84;1803554;78;20235;-81
2021/10/21 04:48:53;;;;;;;;;;;;;;;13.18;60.88;96935.39;1818672;78;21086;-81
2021/10/21 04:51:19;;;;;;;;;;;;;;;13.14;60.95;96922.25;1809945;78;20224;-81
2021/10/21 04:53:45;;;;;;;;;;;;;;;13.12;61.02;96908.45;1813562;78;20335;-81
2021/10/21 04:56:12;;;;;;;;;;;;;;;13.14;61.10;96909.13;1799092;78;20330;-81
2021/10/21 04:58:38;;;;;;;;;;;;;;;13.13;61.17;96891.71;1807102;78;22033;-81
2021/10/21 05:01:04;;;;;;;;;;;;;;;13.13;61.23;96887.77;1784237;78;26048;-81
2021/10/21 05:03:31;;;;;;;;;;;;;;;13.14;61.29;96892.05;1810008;78;20252;-80
2021/10/21 05:05:57;;;;;;;;;;;;;;;13.14;61.37;96880.23;1802326;78;20319;-81
2021/10/21 05:08:23;;;;;;;;;;;;;;;13.08;61.41;96861.14;1809983;78;24815;-81
2021/10/21 05:10:49;;;;;;;;;;;;;;;13.16;61.47;96861.17;1805011;78;20885;-81
2021/10/21 05:13:14;;;;;;;;;;;;;;;13.13;61.53;96853.63;1807411;78;21252;-81
2021/10/21 05:15:40;;;;;;;;;;;;;;;13.12;61.58;96844.92;1813183;78;20237;-81
2021/10/21 05:18:07;;;;;;;;;;;;;;;13.14;61.64;96844.28;1771202;79;20262;-81
2021/10/21 05:20:34;;;;;;;;;;;;;;;13.15;61.68;96831.94;1738913;81;24768;-81
2021/10/21 05:23:01;;;;;;;;;;;;;;;13.15;61.71;96833.25;1756151;80;21634;-81
2021/10/21 05:25:27;;;;;;;;;;;;;;;13.16;61.78;96836.22;1816032;77;26645;-81
2021/10/21 05:27:53;;;;;;;;;;;;;;;13.14;61.83;96846.91;1821455;77;24481;-81
2021/10/21 05:30:19;;;;;;;;;;;;;;;13.12;61.90;96826.54;1813987;77;20252;-81
2021/10/21 05:32:46;;;;;;;;;;;;;;;13.15;61.96;96821.44;1815442;77;20610;-81
2021/10/21 05:35:12;;;;;;;;;;;;;;;13.14;62.01;96814.56;1818416;77;22054;-81
2021/10/21 05:37:38;;;;;;;;;;;;;;;13.11;62.04;96820.09;1819313;77;21047;-81
2021/10/21 05:40:07;;;;;;;;;;;;;;;13.09;62.11;96811.58;1814558;77;20304;-81
2021/10/21 05:42:32;;;;;;;;;;;;;;;13.09;62.19;96808.42;1820515;77;20256;-81
2021/10/21 05:44:59;;;;;;;;;;;;;;;13.09;62.23;96820.25;1817441;78;24418;-81
2021/10/21 05:47:25;;;;;;;;;;;;;;;13.10;62.31;96818.44;1818698;77;22025;-81
2021/10/21 05:49:51;;;;;;;;;;;;;;;13.11;62.37;96826.17;1822005;77;25929;-81
2021/10/21 05:52:20;;;;;;;;;;;;;;;13.11;62.45;96834.05;1820342;77;20286;-81
2021/10/21 05:54:45;;;;;;;;;;;;;;;13.11;62.50;96826.17;1820940;77;20467;-81
2021/10/21 05:57:11;;;;;;;;;;;;;;;13.13;62.56;96827.36;1821067;77;24785;-81
2021/10/21 05:59:37;;;;;;;;;;;;;;;13.11;62.60;96825.34;1818312;77;20583;-81
2021/10/21 06:02:03;;;;;;;;;;;;;;;13.10;62.67;96823.70;1821202;77;21935;-81
2021/10/21 06:04:29;;;;;;;;;;;;;;;13.10;62.73;96828.95;1815396;78;24476;-81
2021/10/21 06:06:55;;;;;;;;;;;;;;;13.08;62.77;96823.05;1818184;77;20261;-81
2021/10/21 06:09:21;;;;;;;;;;;;;;;13.11;62.83;96830.59;1819646;77;20212;-81
2021/10/21 06:11:47;;;;;;;;;;;;;;;13.11;62.89;96835.85;1820456;77;21980;-81
2021/10/21 06:14:13;;;;;;;;;;;;;;;13.12;62.94;96825.71;1818529;77;21009;-81
2021/10/21 06:16:42;;;;;;;;;;;;;;;13.13;62.98;96827.36;1821104;78;20489;-81
2021/10/21 06:19:06;;;;;;;;;;;;;;;13.13;63.02;96816.37;1813727;77;20246;-82
2021/10/21 06:21:33;;;;;;;;;;;;;;;13.16;63.09;96803.38;1796751;78;20333;-81
2021/10/21 06:23:58;;;;;;;;;;;;;;;13.18;63.13;96811.94;1791908;79;22761;-81
2021/10/21 06:26:25;;;;;;;;;;;;;;;13.17;63.16;96801.09;1796171;79;20884;-81
2021/10/21 06:28:51;;;;;;;;;;;;;;;13.17;63.19;96784.84;1793794;79;20254;-81
2021/10/21 06:31:18;;;;;;;;;;;;;;;13.18;63.27;96769.42;1800248;79;20703;-81
2021/10/21 06:33:44;;;;;;;;;;;;;;;13.21;63.30;96743.30;1799872;78;24806;-81
2021/10/21 06:36:10;;;;;;;;;;;;;;;13.20;63.34;96747.73;1799044;79;20321;-81
2021/10/21 06:38:37;;;;;;;;;;;;;;;13.21;63.38;96733.61;1800567;78;26029;-81
2021/10/21 06:41:04;;;;;;;;;;;;;;;13.21;63.44;96722.28;1802238;78;25417;-81
2021/10/21 06:43:30;;;;;;;;;;;;;;;13.22;63.48;96727.87;1795028;78;21247;-81
2021/10/21 06:45:56;;;;;;;;;;;;;;;13.26;63.53;96722.60;1793552;79;24706;-81
2021/10/21 06:48:22;;;;;;;;;;;;;;;13.28;63.56;96729.84;1793389;79;20246;-82
2021/10/21 06:50:48;;;;;;;;;;;;;;;13.29;63.63;96753.33;1798746;78;25961;-82
2021/10/21 06:53:15;;;;;;;;;;;;;;;13.32;63.67;96767.92;1795089;79;24569;-81
2021/10/21 06:55:41;;;;;;;;;;;;;;;13.34;63.71;96773.36;1796861;78;20309;-82
2021/10/21 06:58:07;;;;;;;;;;;;;;;13.37;63.75;96793.20;1798256;79;20297;-82
2021/10/21 07:00:37;;;;;;;;;;;;;;;13.42;63.79;96809.83;1798238;78;20230;-82
2021/10/21 07:03:03;;;;;;;;;;;;;;;13.43;63.84;96795.18;1800166;79;26040;-82
2021/10/21 07:05:32;;;;;;;;;;;;;;;13.47;63.87;96795.20;1800717;79;24361;-82
2021/10/21 07:07:57;;;;;;;;;;;;;;;13.50;63.92;96788.29;1800767;79;20474;-82
2021/10/21 07:10:23;;;;;;;;;;;;;;;13.55;63.96;96795.18;1801538;79;20789;-82
2021/10/21 07:12:49;;;;;;;;;;;;;;;13.59;64.00;96792.55;1796061;79;20301;-82
2021/10/21 07:15:15;;;;;;;;;;;;;;;13.65;64.04;96787.94;1799247;79;26710;-82
2021/10/21 07:17:41;;;;;;;;;;;;;;;13.69;64.05;96782.66;1801979;78;24606;-82
2021/10/21 07:20:08;;;;;;;;;;;;;;;13.72;64.06;96773.16;1811391;78;20230;-82
2021/10/21 07:22:34;;;;;;;;;;;;;;;13.77;64.08;96776.09;1823768;78;24874;-82
2021/10/21 07:25:01;;;;;;;;;;;;;;;13.79;64.10;96782.02;1828895;78;22151;-82
2021/10/21 07:27:27;;;;;;;;;;;;;;;13.80;64.09;96788.89;1829228;78;25969;-82
2021/10/21 07:29:53;;;;;;;;;;;;;;;13.83;64.13;96775.43;1826346;78;24418;-82
2021/10/21 07:32:19;;;;;;;;;;;;;;;13.86;64.13;96761.11;1828947;77;20241;-82
2021/10/21 07:34:45;;;;;;;;;;;;;;;13.90;64.15;96743.20;1828583;78;24783;-82
2021/10/21 07:37:11;;;;;;;;;;;;;;;13.97;64.16;96752.86;1827701;78;21971;-81
2021/10/21 07:39:38;;;;;;;;;;;;;;;14.00;64.13;96769.64;1832265;77;25937;-82
2021/10/21 07:42:05;;;;;;;;;;;;;;;14.05;64.15;96767.31;1827410;77;25497;-82
2021/10/21 07:44:31;;;;;;;;;;;;;;;14.07;64.17;96783.73;1829389;77;20325;-82
2021/10/21 07:46:58;;;;;;;;;;;;;;;14.14;64.19;96799.17;1831643;78;24860;-81
2021/10/21 07:49:24;;;;;;;;;;;;;;;14.23;64.20;96801.30;1825907;78;21937;-82
2021/10/21 07:51:50;;;;;;;;;;;;;;;14.30;64.20;96794.34;1826153;77;25550;-82
2021/10/21 07:54:16;;;;;;;;;;;;;;;14.37;64.19;96786.14;1827802;78;20249;-82
2021/10/21 07:56:42;;;;;;;;;;;;;;;14.43;64.17;96786.77;1825613;78;20301;-82
2021/10/21 07:59:08;;;;;;;;;;;;;;;14.49;64.15;96790.04;1832218;78;20197;-82
2021/10/21 08:01:34;;;;;;;;;;;;;;;14.57;64.16;96787.84;1828033;77;20343;-82
2021/10/21 08:04:00;;;;;;;;;;;;;;;14.66;64.15;96785.52;1822611;78;20955;-82
2021/10/21 08:06:27;;;;;;;;;;;;;;;14.75;64.13;96791.55;1825379;77;24411;-81
2021/10/21 08:08:54;;;;;;;;;;;;;;;14.81;64.08;96796.95;1823683;77;20154;-82
2021/10/21 08:11:21;;;;;;;;;;;;;;;14.91;64.07;96801.98;1831917;77;24912;-82
2021/10/21 08:13:47;;;;;;;;;;;;;;;15.00;64.09;96793.06;1834753;78;22075;-81
2021/10/21 08:16:14;;;;;;;;;;;;;;;15.08;64.11;96813.58;1804109;78;22125;-82
2021/10/21 08:18:40;;;;;;;;;;;;;;;15.15;64.11;96826.88;1820331;77;20245;-82
2021/10/21 08:21:09;;;;;;;;;;;;;;;15.21;64.06;96840.67;1820872;77;20283;-82
2021/10/21 08:23:35;;;;;;;;;;;;;;;15.28;64.10;96846.87;1822448;77;20267;-82
2021/10/21 08:26:01;;;;;;;;;;;;;;;15.39;64.10;96853.05;1833813;77;20224;-82
2021/10/21 08:28:27;;;;;;;;;;;;;;;15.48;64.07;96859.10;1838892;77;20953;-82
2021/10/21 08:30:53;;;;;;;;;;;;;;;15.58;64.08;96886.58;1787558;79;20312;-81
2021/10/21 08:33:22;;;;;;;;;;;;;;;15.66;64.05;96912.88;1782683;79;20313;-82
2021/10/21 08:35:48;;;;;;;;;;;;;;;15.75;64.02;96939.53;1793849;79;24820;-83
2021/10/21 08:38:14;;;;;;;;;;;;;;;15.84;63.97;96965.67;1836831;77;20763;-82
2021/10/21 08:40:40;;;;;;;;;;;;;;;15.94;63.93;96981.76;1834440;77;26041;-82
2021/10/21 08:43:09;;;;;;;;;;;;;;;16.05;63.90;96991.91;1835485;77;24452;-81
2021/10/21 08:45:36;;;;;;;;;;;;;;;16.13;63.81;96979.98;1794429;79;20800;-82
2021/10/21 08:48:03;;;;;;;;;;;;;;;16.19;63.73;96984.55;1804531;78;25527;-81
2021/10/21 08:50:32;;;;;;;;;;;;;;;16.25;63.68;96975.42;1767200;79;22600;-82
2021/10/21 08:52:58;;;;;;;;;;;;;;;16.33;63.68;96956.03;1769200;80;25942;-82
2021/10/21 08:55:24;;;;;;;;;;;;;;;16.39;63.61;96951.36;1761746;78;20359;-82
2021/10/21 08:57:50;;;;;;;;;;;;;;;16.41;63.45;96954.66;1789080;79;20245;-82
2021/10/21 09:00:16;;;;;;;;;;;;;;;16.38;63.25;96944.44;1767760;79;24813;-81
2021/10/21 09:02:54;;;;;;;;;;;;;;;16.33;63.13;96930.45;1785253;80;21935;-81
2021/10/21 09:05:29;;;;;;;;;;;;;;;16.30;63.00;96936.11;1807815;78;26486;-82
2021/10/21 09:08:08;;;;;;;;;;;;;;;16.31;62.95;96923.20;1810584;78;24421;-82
2021/10/21 09:10:36;;;;;;;;;;;;;;;16.35;62.92;96925.01;1805353;78;20379;-82
2021/10/21 09:13:02;;;;;;;;;;;;;;;16.38;62.87;96938.33;1804588;78;24723;-82
2021/10/21 09:15:28;;;;;;;;;;;;;;;16.41;62.81;96947.23;1811549;78;23050;-82
2021/10/21 09:17:55;;;;;;;;;;;;;;;16.43;62.79;96958.41;1805611;78;21000;-82
2021/10/21 09:20:23;;;;;;;;;;;;;;;16.44;62.75;96956.92;1788095;80;24530;-82
2021/10/21 09:22:53;;;;;;;;;;;;;;;16.46;62.69;96967.31;1751830;81;20221;-82
2021/10/21 09:25:23;;;;;;;;;;;;;;;16.44;62.61;96970.13;1757137;81;24915;-82
2021/10/21 09:27:52;;;;;;;;;;;;;;;16.44;62.52;96974.59;1840381;77;21945;-82
2021/10/21 09:30:32;;;;;;;;;;;;;;;16.40;62.47;96977.27;1834723;77;26196;-82
2021/10/21 09:33:02;;;;;;;;;;;;;;;16.33;62.35;96981.13;1838962;77;24205;-82
2021/10/21 09:35:29;;;;;;;;;;;;;;;16.26;62.24;96978.36;1843392;76;20448;-82
2021/10/21 09:37:55;;;;;;;;;;;;;;;16.22;62.17;96973.13;1838471;77;24905;-81
2021/10/21 09:40:24;;;;;;;;;;;;;;;16.13;62.05;96987.40;1838508;77;20215;-82
2021/10/21 09:42:55;;;;;;;;;;;;;;;16.06;61.91;97010.20;1794643;79;26045;-82
2021/10/21 09:45:23;;;;;;;;;;;;;;;15.95;61.83;97016.39;1747081;80;24485;-82
2021/10/21 09:47:50;;;;;;;;;;;;;;;15.90;61.73;97022.19;1785865;79;20229;-82
2021/10/21 09:50:17;;;;;;;;;;;;;;;15.84;61.68;97024.20;1759631;79;24762;-82
2021/10/21 09:52:45;;;;;;;;;;;;;;;15.78;61.64;97032.81;1840601;77;22056;-82
2021/10/21 09:55:11;;;;;;;;;;;;;;;15.73;61.56;97033.83;1801947;79;26129;-81
2021/10/21 09:57:37;;;;;;;;;;;;;;;15.73;61.58;97030.70;1757938;79;20231;-81
2021/10/21 10:00:07;;;;;;;;;;;;;;;15.75;61.62;96998.39;1792156;79;20765;-81
2021/10/21 10:02:33;;;;;;;;;;;;;;;15.77;61.61;96995.55;1768305;80;24971;-82
2021/10/21 10:05:04;;;;;;;;;;;;;;;15.81;61.60;97020.61;1747917;80;20747;-82
2021/10/21 10:07:35;;;;;;;;;;;;;;;15.87;61.62;97030.47;1763336;80;25993;-81
2021/10/21 10:10:02;;;;;;;;;;;;;;;15.90;61.59;97039.34;1805798;78;24503;-81
2021/10/21 10:12:33;;;;;;;;;;;;;;;15.94;61.57;97051.68;1745388;79;20188;-82
2021/10/21 10:14:59;;;;;;;;;;;;;;;15.97;61.57;97063.22;1770653;80;24817;-82
2021/10/21 10:17:27;;;;;;;;;;;;;;;16.03;61.61;97075.72;1774697;79;22088;-81
2021/10/21 10:19:53;;;;;;;;;;;;;;;16.04;61.64;97079.48;1771406;79;26984;-82
2021/10/21 10:22:21;;;;;;;;;;;;;;;16.04;61.64;97072.09;1752398;81;20262;-82
2021/10/21 10:24:48;;;;;;;;;;;;;;;16.04;61.66;97072.09;1711752;81;20166;-82
2021/10/21 10:27:19;;;;;;;;;;;;;;;15.98;61.64;97074.11;1728804;81;24924;-82
2021/10/21 10:29:46;;;;;;;;;;;;;;;16.02;61.67;97077.53;1735333;82;22147;-82
2021/10/21 10:32:31;;;;;;;;;;;;;;;16.00;61.69;97070.78;1729942;82;25523;-82
2021/10/21 10:34:58;;;;;;;;;;;;;;;15.96;61.70;97064.20;1715221;82;24435;-81
2021/10/21 10:37:25;;;;;;;;;;;;;;;15.92;61.67;97064.24;1723884;82;20217;-82
2021/10/21 10:39:53;;;;;;;;;;;;;;;15.87;61.67;97066.09;1719255;81;24756;-82
2021/10/21 10:42:34;;;;;;;;;;;;;;;15.84;61.69;97053.23;1714136;81;22201;-82
2021/10/21 10:44:59;;;;;;;;;;;;;;;15.79;61.68;97042.38;1778416;79;26825;-82
2021/10/21 10:47:44;;;;;;;;;;;;;;;15.75;61.63;97030.53;1794915;79;24506;-82
2021/10/21 10:50:25;;;;;;;;;;;;;;;15.73;61.67;97014.05;1787980;79;20408;-82
2021/10/21 10:52:53;;;;;;;;;;;;;;;15.72;61.68;97011.91;1793814;79;24872;-82
2021/10/21 10:55:24;;;;;;;;;;;;;;;15.73;61.76;96996.91;1781343;79;21945;-81
2021/10/21 10:57:51;;;;;;;;;;;;;;;15.71;61.77;96981.77;1788735;79;25707;-81
2021/10/21 11:00:36;;;;;;;;;;;;;;;15.67;61.81;96962.81;1782728;79;24456;-81
2021/10/21 11:03:02;;;;;;;;;;;;;;;15.66;61.83;96954.58;1771462;79;20385;-81
2021/10/21 11:05:45;;;;;;;;;;;;;;;15.64;61.84;96943.40;1779381;79;24739;-81
2021/10/21 11:08:12;;;;;;;;;;;;;;;15.62;61.91;96930.05;1784210;79;22071;-82
2021/10/21 11:10:46;;;;;;;;;;;;;;;15.61;61.93;96936.31;1789428;79;26017;-82
2021/10/21 11:13:20;;;;;;;;;;;;;;;15.60;61.98;96911.75;1783084;79;25094;-82
2021/10/21 11:15:47;;;;;;;;;;;;;;;15.62;62.00;96897.09;1770134;79;20219;-82
2021/10/21 11:18:26;;;;;;;;;;;;;;;15.62;62.05;96889.17;1759710;80;25985;-82
2021/10/21 11:20:51;;;;;;;;;;;;;;;15.63;62.09;96890.83;1794709;78;22072;-82
2021/10/21 11:23:29;;;;;;;;;;;;;;;15.65;62.14;96883.56;1809795;78;20962;-82
2021/10/21 11:26:00;;;;;;;;;;;;;;;15.69;62.19;96893.58;1806341;78;24754;-82
2021/10/21 11:28:26;;;;;;;;;;;;;;;15.73;62.26;96893.54;1808509;78;20473;-82
2021/10/21 11:30:53;;;;;;;;;;;;;;;15.78;62.30;96885.92;1812084;78;24626;-82
2021/10/21 11:33:19;;;;;;;;;;;;;;;15.84;62.37;96887.02;1803597;78;22173;-81
2021/10/21 11:35:45;;;;;;;;;;;;;;;15.91;62.41;96890.60;1808505;78;21640;-81
2021/10/21 11:38:13;;;;;;;;;;;;;;;15.95;62.46;96885.28;1813410;78;25146;-81
2021/10/21 11:40:43;;;;;;;;;;;;;;;16.01;62.45;96896.94;1797559;78;20239;-82
2021/10/21 11:43:11;;;;;;;;;;;;;;;16.06;62.50;96896.73;1790079;78;24618;-81
2021/10/21 11:45:38;;;;;;;;;;;;;;;16.07;62.49;96878.58;1802850;78;22086;-81
2021/10/21 11:48:14;;;;;;;;;;;;;;;16.07;62.50;96898.37;1800838;78;25930;-81
2021/10/21 11:50:45;;;;;;;;;;;;;;;16.07;62.47;96904.97;1808332;78;24537;-82
2021/10/21 11:53:11;;;;;;;;;;;;;;;16.08;62.46;96901.84;1811555;78;20206;-82
2021/10/21 11:55:38;;;;;;;;;;;;;;;16.04;62.43;96874.96;1800524;78;24785;-82
2021/10/21 11:58:09;;;;;;;;;;;;;;;16.15;62.30;96890.36;1809658;78;22014;-81
2021/10/21 12:00:35;;;;;;;;;;;;;;;16.23;62.09;96886.34;1805142;78;26771;-82
2021/10/21 12:03:02;;;;;;;;;;;;;;;16.33;61.81;96884.75;1809239;78;24485;-82
2021/10/21 12:05:40;;;;;;;;;;;;;;;16.42;61.49;96888.94;1808117;77;20238;-81
2021/10/21 12:08:06;;;;;;;;;;;;;;;16.47;61.22;96872.58;1813143;78;25359;-82
2021/10/21 12:10:33;;;;;;;;;;;;;;;16.51;60.87;96881.77;1806397;78;22690;-82
2021/10/21 12:13:00;;;;;;;;;;;;;;;16.53;60.53;96866.57;1813557;78;26021;-82
2021/10/21 12:15:27;;;;;;;;;;;;;;;16.55;60.13;96865.87;1802001;78;24463;-82
2021/10/21 12:17:54;;;;;;;;;;;;;;;16.58;59.76;96862.34;1807994;78;20348;-81
2021/10/21 12:20:41;;;;;;;;;;;;;;;16.64;59.43;96874.86;1811202;78;24838;-82
2021/10/21 12:23:12;;;;;;;;;;;;;;;16.68;59.16;96856.84;1795005;79;22049;-82
2021/10/21 12:25:38;;;;;;;;;;;;;;;16.73;58.88;96847.86;1792672;79;25985;-82
2021/10/21 12:28:04;;;;;;;;;;;;;;;16.79;58.67;96860.34;1794590;78;20262;-82
2021/10/21 12:30:38;;;;;;;;;;;;;;;16.82;58.40;96862.59;1795669;79;20232;-81
2021/10/21 12:33:14;;;;;;;;;;;;;;;16.86;58.16;96869.64;1793518;78;24773;-82
2021/10/21 12:35:57;;;;;;;;;;;;;;;16.86;57.81;96861.22;1792745;78;22046;-81
2021/10/21 12:38:24;;;;;;;;;;;;;;;16.88;57.59;96870.29;1793359;79;26028;-82
2021/10/21 12:40:57;;;;;;;;;;;;;;;16.87;57.29;96869.47;1793505;79;24423;-82
2021/10/21 12:43:25;;;;;;;;;;;;;;;16.89;57.16;96881.19;1795609;79;20274;-82
2021/10/21 12:45:51;;;;;;;;;;;;;;;16.87;56.99;96880.53;1794362;79;25438;-82
2021/10/21 12:48:25;;;;;;;;;;;;;;;16.88;56.84;96899.36;1795007;79;22666;-82
2021/10/21 12:50:52;;;;;;;;;;;;;;;16.86;56.40;96910.59;1796149;78;26021;-82